Time;durP1;ratioP1;P1;durP2;ratioP2;P2;SDS_P1;SDS_P2;PMS_P1;PMS_P2;Temp;Humidity;BMP_temperature;BMP_pressure;BME280_temperature;BME280_humidity;BME280_pressure;Samples;Min_cycle;Max_cycle;Signal;HPM_P1;HPM_P2
2021/05/14 00:02:28;;;;;;;7.93;2.90;;;11.40;99.90;;;;;;10268603;28;20490;-48
2021/05/14 00:07:49;;;;;;;7.82;3.58;;;11.50;99.90;;;;;;10265867;28;20549;-49
2021/05/14 00:13:11;;;;;;;6.80;3.10;;;11.50;99.90;;;;;;10264003;28;20085;-48
2021/05/14 00:18:32;;;;;;;7.93;2.92;;;11.50;99.90;;;;;;10260238;28;20402;-49
2021/05/14 00:23:54;;;;;;;8.20;3.03;;;11.50;99.90;;;;;;10268175;28;20050;-48
2021/05/14 00:29:15;;;;;;;5.72;2.67;;;11.50;99.90;;;;;;10267495;28;20041;-48
2021/05/14 00:34:36;;;;;;;8.93;3.47;;;11.40;99.90;;;;;;10266626;28;20267;-48
2021/05/14 00:39:57;;;;;;;7.50;2.97;;;11.30;99.90;;;;;;10269118;28;20663;-48
2021/05/14 00:45:18;;;;;;;5.95;2.55;;;11.30;99.90;;;;;;10265784;28;20053;-48
2021/05/14 00:50:39;;;;;;;6.82;2.83;;;11.20;99.90;;;;;;10265136;28;20055;-48
2021/05/14 00:56:04;;;;;;;8.82;3.50;;;11.10;99.90;;;;;;10263410;28;20043;-48
2021/05/14 01:01:25;;;;;;;9.00;3.25;;;11.10;99.90;;;;;;10268809;28;20061;-49
2021/05/14 01:06:46;;;;;;;7.93;3.67;;;11.00;99.90;;;;;;10282189;28;20965;-49
2021/05/14 01:12:11;;;;;;;6.35;3.00;;;11.10;99.90;;;;;;10270888;28;20764;-49
2021/05/14 01:17:33;;;;;;;5.88;2.83;;;11.00;99.90;;;;;;10277324;28;20038;-48
2021/05/14 01:22:55;;;;;;;7.47;3.67;;;11.00;99.90;;;;;;10284142;28;20054;-49
2021/05/14 01:28:16;;;;;;;9.15;3.85;;;11.00;99.90;;;;;;10278829;28;20502;-49
2021/05/14 01:33:38;;;;;;;7.28;3.10;;;11.00;99.90;;;;;;10275694;28;20043;-49
2021/05/14 01:39:13;;;;;;;8.90;3.47;;;10.90;99.90;;;;;;10281286;28;20134;-48
2021/05/14 01:44:34;;;;;;;7.55;2.45;;;10.90;99.90;;;;;;10279333;28;20637;-48
2021/05/14 01:49:55;;;;;;;7.00;3.70;;;10.90;99.90;;;;;;10280316;28;20055;-49
2021/05/14 01:55:16;;;;;;;10.25;3.53;;;10.90;99.90;;;;;;10282331;28;20384;-48
2021/05/14 02:00:37;;;;;;;8.52;3.55;;;10.90;99.90;;;;;;10276480;28;20082;-49
2021/05/14 02:05:58;;;;;;;6.90;3.28;;;10.90;99.90;;;;;;10282994;28;20043;-49
2021/05/14 02:11:19;;;;;;;11.13;3.90;;;10.90;99.90;;;;;;10287206;28;20058;-48
2021/05/14 02:16:41;;;;;;;8.05;3.30;;;10.80;99.90;;;;;;10279795;28;20058;-48
2021/05/14 02:22:06;;;;;;;8.27;3.58;;;10.80;99.90;;;;;;10249126;28;20054;-49
2021/05/14 02:27:27;;;;;;;8.00;2.90;;;10.70;99.90;;;;;;10261084;28;20047;-48
2021/05/14 02:32:49;;;;;;;9.52;3.30;;;10.70;99.90;;;;;;10261894;28;20069;-48
2021/05/14 02:38:16;;;;;;;8.88;3.58;;;10.70;99.90;;;;;;10296400;28;20473;-48
2021/05/14 02:43:39;;;;;;;9.35;3.67;;;10.70;99.90;;;;;;10288929;28;20737;-48
2021/05/14 02:49:00;;;;;;;7.05;3.08;;;10.70;99.90;;;;;;10291011;28;20046;-49
2021/05/14 02:54:24;;;;;;;6.72;3.15;;;10.60;99.90;;;;;;10289080;28;20638;-49
2021/05/14 02:59:51;;;;;;;12.70;4.03;;;10.50;99.90;;;;;;10289883;28;20642;-49
2021/05/14 03:05:12;;;;;;;8.10;3.08;;;10.60;99.90;;;;;;10289592;28;20504;-48
2021/05/14 03:10:33;;;;;;;8.20;3.28;;;10.60;99.90;;;;;;10260259;28;20054;-49
2021/05/14 03:15:54;;;;;;;9.77;3.60;;;10.60;99.90;;;;;;10275573;28;20759;-49
2021/05/14 03:21:15;;;;;;;8.60;3.75;;;10.60;99.90;;;;;;10283321;28;20392;-48
2021/05/14 03:26:37;;;;;;;8.98;3.70;;;10.60;99.90;;;;;;10272110;28;20046;-48
2021/05/14 03:32:03;;;;;;;10.40;3.63;;;10.60;99.90;;;;;;10281944;28;20498;-48
2021/05/14 03:37:30;;;;;;;13.15;3.55;;;10.50;99.90;;;;;;10229866;28;20422;-48
2021/05/14 03:42:51;;;;;;;9.85;3.45;;;10.50;99.90;;;;;;10273893;28;20043;-48
2021/05/14 03:48:20;;;;;;;7.97;3.50;;;10.60;99.90;;;;;;10272775;28;20534;-49
2021/05/14 03:53:41;;;;;;;7.90;4.13;;;10.60;99.90;;;;;;10220803;28;20148;-48
2021/05/14 03:59:11;;;;;;;7.95;3.08;;;10.60;99.90;;;;;;10235045;28;20388;-48
2021/05/14 04:04:34;;;;;;;7.78;3.63;;;10.50;99.90;;;;;;10264221;28;20596;-48
2021/05/14 04:10:13;;;;;;;9.07;3.17;;;10.50;99.90;;;;;;10261268;28;20530;-48
2021/05/14 04:15:39;;;;;;;6.93;2.83;;;10.50;99.90;;;;;;10263284;28;20106;-48
2021/05/14 04:21:00;;;;;;;6.88;3.55;;;10.40;99.90;;;;;;10235810;28;20054;-48
2021/05/14 04:26:24;;;;;;;7.53;2.92;;;10.50;99.90;;;;;;10274136;28;20058;-48
2021/05/14 04:31:58;;;;;;;;;;;;;;;;;;;;;
2021/05/14 04:37:20;;;;;;;8.63;3.63;;;10.50;99.90;;;;;;10239313;28;20058;-48
2021/05/14 04:42:41;;;;;;;6.07;2.35;;;10.50;99.90;;;;;;10255852;28;20164;-48
2021/05/14 04:48:05;;;;;;;5.22;2.63;;;10.40;99.90;;;;;;10266213;28;20418;-48
2021/05/14 04:53:31;;;;;;;5.60;3.17;;;10.40;99.90;;;;;;10272083;28;20572;-48
2021/05/14 04:59:00;;;;;;;8.82;3.80;;;10.40;99.90;;;;;;10274017;28;20505;-48
2021/05/14 05:04:26;;;;;;;9.43;3.67;;;10.50;99.90;;;;;;10278185;28;20762;-48
2021/05/14 05:09:49;;;;;;;8.02;3.65;;;10.40;99.90;;;;;;10274612;28;20442;-48
2021/05/14 05:15:11;;;;;;;6.70;2.92;;;10.40;99.90;;;;;;10265541;28;20043;-48
2021/05/14 05:20:32;;;;;;;7.22;2.42;;;10.30;99.90;;;;;;10256479;28;20141;-48
2021/05/14 05:25:59;;;;;;;7.57;3.13;;;10.30;99.90;;;;;;10255853;28;20615;-48
2021/05/14 05:32:12;;;;;;;10.00;4.88;;;10.30;99.90;;;;;;10250205;28;20133;-48
2021/05/14 05:43:39;;;;;;;7.70;2.70;;;10.30;99.90;;;;;;10379539;23;20052;-83
2021/05/14 05:49:00;;;;;;;5.20;2.75;;;10.30;99.90;;;;;;10331503;28;20406;-83
2021/05/14 05:54:22;;;;;;;6.28;2.47;;;10.30;99.90;;;;;;10322440;28;20146;-83
2021/05/14 05:59:42;;;;;;;6.20;2.78;;;10.30;99.90;;;;;;10348023;28;20750;-82
2021/05/14 06:05:05;;;;;;;8.27;3.63;;;10.30;99.90;;;;;;10285875;28;20050;-82
2021/05/14 06:10:27;;;;;;;7.78;3.40;;;10.30;99.90;;;;;;10304601;28;20049;-83
2021/05/14 06:15:50;;;;;;;7.05;3.50;;;10.40;99.90;;;;;;10329101;28;20033;-83
2021/05/14 06:21:12;;;;;;;6.80;2.78;;;10.40;99.90;;;;;;10331319;28;20046;-82
2021/05/14 06:26:32;;;;;;;6.80;2.88;;;10.40;99.90;;;;;;10327688;28;20117;-83
2021/05/14 06:31:53;;;;;;;7.25;3.65;;;10.40;99.90;;;;;;10331415;28;20532;-82
2021/05/14 06:37:14;;;;;;;4.88;1.90;;;10.50;99.90;;;;;;10317562;28;20045;-83
2021/05/14 06:42:36;;;;;;;8.38;3.85;;;10.50;99.90;;;;;;10345169;28;20046;-82
2021/05/14 06:48:08;;;;;;;7.70;3.30;;;10.70;99.90;;;;;;10336024;28;20038;-85
2021/05/14 06:53:29;;;;;;;10.95;3.65;;;10.70;99.90;;;;;;10351640;28;20042;-83
2021/05/14 06:58:54;;;;;;;6.43;2.55;;;10.60;99.90;;;;;;10351798;28;20037;-83
2021/05/14 07:04:15;;;;;;;7.47;3.20;;;10.70;99.90;;;;;;10334716;28;20050;-83
2021/05/14 07:09:36;;;;;;;9.80;3.45;;;10.70;99.90;;;;;;10349123;28;20054;-83
2021/05/14 07:14:57;;;;;;;6.28;2.97;;;10.90;99.90;;;;;;10331838;28;20038;-82
2021/05/14 07:20:20;;;;;;;8.20;3.30;;;10.90;99.90;;;;;;10340461;28;20074;-82
2021/05/14 07:25:41;;;;;;;4.68;2.00;;;11.00;99.90;;;;;;10335177;28;20076;-83
2021/05/14 07:31:02;;;;;;;5.68;2.45;;;11.10;99.90;;;;;;10328166;28;20520;-83
2021/05/14 07:36:24;;;;;;;7.57;2.42;;;11.10;99.90;;;;;;10338992;28;20501;-83
2021/05/14 07:41:45;;;;;;;4.88;2.50;;;11.20;99.90;;;;;;10326900;28;20568;-83
2021/05/14 07:47:06;;;;;;;6.30;2.50;;;11.20;99.90;;;;;;10317496;28;20514;-83
2021/05/14 07:52:27;;;;;;;5.90;3.70;;;11.30;99.90;;;;;;10321587;28;20034;-84
2021/05/14 07:57:48;;;;;;;7.30;3.13;;;11.40;99.90;;;;;;10325094;28;20093;-82
2021/05/14 08:03:09;;;;;;;5.43;2.20;;;11.40;99.90;;;;;;10334411;28;20061;-82
2021/05/14 08:08:34;;;;;;;5.90;2.95;;;11.50;99.90;;;;;;10318415;28;20045;-82
2021/05/14 08:13:55;;;;;;;5.43;2.35;;;11.40;99.90;;;;;;10330306;28;20489;-81
2021/05/14 08:19:16;;;;;;;5.78;2.25;;;11.50;99.90;;;;;;10347262;28;20054;-83
2021/05/14 08:24:37;;;;;;;5.25;1.95;;;11.40;99.90;;;;;;10306654;28;20050;-81
2021/05/14 08:29:58;;;;;;;5.15;2.47;;;11.30;99.90;;;;;;10338724;28;20120;-82
2021/05/14 08:35:19;;;;;;;4.38;2.20;;;11.40;99.90;;;;;;10310932;28;20034;-82
2021/05/14 08:40:40;;;;;;;7.10;2.45;;;11.70;99.90;;;;;;10338023;28;20504;-83
2021/05/14 08:46:03;;;;;;;6.88;2.25;;;11.60;99.90;;;;;;10337561;28;20058;-82
2021/05/14 08:51:27;;;;;;;5.50;2.20;;;11.50;99.90;;;;;;10312213;28;20040;-83
2021/05/14 08:56:48;;;;;;;6.32;2.53;;;11.50;99.90;;;;;;10337023;28;20048;-81
2021/05/14 09:02:11;;;;;;;4.32;2.20;;;11.50;99.90;;;;;;10338520;28;20073;-82
2021/05/14 09:07:44;;;;;;;6.18;1.77;;;11.40;99.90;;;;;;10305404;28;20037;-81
2021/05/14 09:13:11;;;;;;;4.30;2.15;;;11.40;99.90;;;;;;10339926;28;20042;-82
2021/05/14 09:18:32;;;;;;;7.97;2.75;;;11.30;99.90;;;;;;10313261;28;20054;-83
2021/05/14 09:23:55;;;;;;;5.45;1.98;;;11.40;99.90;;;;;;10322216;28;20057;-83
2021/05/14 09:29:38;;;;;;;7.22;3.00;;;11.40;99.90;;;;;;10356513;28;20041;-84
2021/05/14 09:35:03;;;;;;;4.75;2.28;;;11.50;99.90;;;;;;10329250;28;20066;-82
2021/05/14 09:40:24;;;;;;;4.68;1.85;;;12.00;99.90;;;;;;10340735;28;20511;-83
2021/05/14 09:45:46;;;;;;;5.95;2.80;;;12.10;99.90;;;;;;10328588;28;20116;-83
2021/05/14 09:51:13;;;;;;;3.78;1.83;;;12.30;99.90;;;;;;10316631;28;20064;-82
2021/05/14 09:56:35;;;;;;;5.97;2.53;;;12.50;99.90;;;;;;10353852;28;20047;-82
2021/05/14 10:01:57;;;;;;;5.10;2.13;;;12.60;99.90;;;;;;10315911;28;21364;-82
2021/05/14 10:07:19;;;;;;;5.45;1.73;;;12.70;99.90;;;;;;10311439;28;20038;-83
2021/05/14 10:12:40;;;;;;;4.60;1.67;;;12.80;99.90;;;;;;10306112;28;20042;-84
2021/05/14 10:18:05;;;;;;;4.93;1.80;;;13.10;99.90;;;;;;10328208;28;20113;-81
2021/05/14 10:23:30;;;;;;;3.78;1.73;;;13.30;99.90;;;;;;10337820;28;20041;-83
2021/05/14 10:28:51;;;;;;;4.22;1.58;;;13.60;99.90;;;;;;10316985;28;20041;-82
2021/05/14 10:34:16;;;;;;;7.07;2.47;;;14.10;99.90;;;;;;10312285;28;20129;-83
2021/05/14 10:39:39;;;;;;;8.82;2.58;;;14.30;99.90;;;;;;10346363;28;20079;-81
2021/05/14 10:45:00;;;;;;;4.80;2.03;;;14.20;99.90;;;;;;10337780;28;20125;-84
2021/05/14 10:50:36;;;;;;;6.20;2.45;;;14.60;99.90;;;;;;10316150;28;20099;-83
2021/05/14 10:56:09;;;;;;;6.75;2.80;;;14.80;99.90;;;;;;10337717;28;20524;-81
2021/05/14 11:01:42;;;;;;;4.80;2.50;;;14.40;99.90;;;;;;10340664;28;20073;-83
2021/05/14 11:07:03;;;;;;;4.78;1.98;;;14.60;99.90;;;;;;10352781;28;20069;-83
2021/05/14 11:12:27;;;;;;;6.78;2.22;;;15.70;99.90;;;;;;10318341;28;20056;-81
2021/05/14 11:18:06;;;;;;;3.95;1.75;;;16.30;99.90;;;;;;10330706;28;20073;-82
2021/05/14 11:23:35;;;;;;;4.82;1.80;;;16.60;99.90;;;;;;10345654;28;20035;-82
2021/05/14 11:28:56;;;;;;;13.63;1.75;;;16.30;99.90;;;;;;10343577;28;20632;-82
2021/05/14 11:34:17;;;;;;;4.10;1.45;;;16.20;99.90;;;;;;10314032;28;20038;-82
2021/05/14 11:39:38;;;;;;;5.13;1.85;;;16.60;99.90;;;;;;10327831;28;20046;-82
2021/05/14 11:45:00;;;;;;;4.18;1.30;;;17.30;99.90;;;;;;10337174;28;20045;-82
2021/05/14 11:50:47;;;;;;;5.05;1.98;;;16.70;99.90;;;;;;10355216;28;20034;-81
2021/05/14 11:56:08;;;;;;;5.43;1.90;;;16.70;99.90;;;;;;10345292;28;20570;-81
2021/05/14 12:01:38;;;;;;;6.82;1.83;;;17.70;99.90;;;;;;10326050;28;20053;-81
2021/05/14 12:06:59;;;;;;;3.53;1.58;;;18.00;99.90;;;;;;10363116;28;20058;-80
2021/05/14 12:12:20;;;;;;;4.00;1.52;;;18.00;99.90;;;;;;10315459;28;20509;-82
2021/05/14 12:17:43;;;;;;;3.13;1.17;;;19.00;99.90;;;;;;10323946;28;20038;-81
2021/05/14 12:23:06;;;;;;;4.10;1.67;;;19.10;99.90;;;;;;10329182;28;20042;-80
2021/05/14 12:28:33;;;;;;;3.28;1.38;;;19.10;99.90;;;;;;10338370;28;20634;-81
2021/05/14 12:34:08;;;;;;;3.75;1.20;;;19.00;99.90;;;;;;10332049;28;20618;-81
2021/05/14 12:39:29;;;;;;;4.32;1.30;;;19.70;99.90;;;;;;10323460;28;20814;-81
2021/05/14 12:44:52;;;;;;;3.67;1.45;;;19.10;99.90;;;;;;10302364;28;20034;-80
2021/05/14 12:50:24;;;;;;;3.08;1.42;;;19.40;99.90;;;;;;10321061;28;20043;-80
2021/05/14 12:55:45;;;;;;;6.18;1.90;;;18.80;99.90;;;;;;10330628;28;20703;-80
2021/05/14 13:01:06;;;;;;;2.55;1.35;;;18.20;99.90;;;;;;10307957;28;20117;-80
2021/05/14 13:06:29;;;;;;;3.75;1.73;;;17.60;99.90;;;;;;10331691;28;20030;-81
2021/05/14 13:11:49;;;;;;;2.92;1.40;;;16.60;99.90;;;;;;10320423;28;20121;-81
2021/05/14 13:17:11;;;;;;;4.35;1.85;;;16.40;99.90;;;;;;10323067;28;20042;-81
2021/05/14 13:22:32;;;;;;;7.43;2.45;;;16.50;99.90;;;;;;10335878;28;21185;-81
2021/05/14 13:27:53;;;;;;;4.28;2.03;;;17.10;99.90;;;;;;10305900;28;20042;-81
2021/05/14 13:33:14;;;;;;;5.53;2.05;;;18.10;99.90;;;;;;10315242;28;20042;-81
2021/05/14 13:38:35;;;;;;;6.78;2.05;;;18.30;99.90;;;;;;10349411;28;20128;-81
2021/05/14 13:43:56;;;;;;;3.65;2.05;;;17.70;99.90;;;;;;10332661;28;20136;-82
2021/05/14 13:49:19;;;;;;;5.95;1.83;;;17.00;99.90;;;;;;10318851;28;20445;-82
2021/05/14 13:54:40;;;;;;;4.20;1.60;;;16.40;99.90;;;;;;10339545;28;20128;-82
2021/05/14 14:00:01;;;;;;;6.30;2.85;;;16.10;99.90;;;;;;10338858;28;20042;-82
2021/05/14 14:05:22;;;;;;;9.27;2.47;;;16.10;99.90;;;;;;10350486;28;20046;-82
2021/05/14 14:10:43;;;;;;;5.18;1.98;;;15.90;99.90;;;;;;10346890;28;20482;-82
2021/05/14 14:16:05;;;;;;;4.95;1.73;;;15.90;99.90;;;;;;10342892;28;20053;-82
2021/05/14 14:21:27;;;;;;;5.15;2.38;;;15.80;99.90;;;;;;10350512;28;20044;-83
2021/05/14 14:26:48;;;;;;;4.68;1.90;;;16.00;99.90;;;;;;10326689;28;20693;-82
2021/05/14 14:32:09;;;;;;;6.43;3.10;;;15.90;99.90;;;;;;10338549;28;20100;-82
2021/05/14 14:37:30;;;;;;;12.02;3.25;;;15.90;99.90;;;;;;10322559;28;20136;-82
2021/05/14 14:42:51;;;;;;;4.55;2.20;;;16.00;99.90;;;;;;10326962;28;20037;-81
2021/05/14 14:48:15;;;;;;;6.38;2.60;;;16.20;99.90;;;;;;10340719;28;20041;-82
2021/05/14 14:53:36;;;;;;;4.78;2.35;;;16.40;99.90;;;;;;10350100;28;20045;-81
2021/05/14 14:58:57;;;;;;;5.00;2.35;;;16.80;99.90;;;;;;10325497;28;20073;-81
2021/05/14 15:04:19;;;;;;;5.65;2.78;;;16.90;99.90;;;;;;10337376;28;20049;-81
2021/05/14 15:09:40;;;;;;;5.20;2.33;;;17.20;99.90;;;;;;10347122;28;20046;-81
2021/05/14 15:15:02;;;;;;;4.75;2.30;;;17.00;99.90;;;;;;10326007;28;20042;-81
2021/05/14 15:20:25;;;;;;;6.03;2.60;;;16.50;99.90;;;;;;10337350;28;20046;-81
2021/05/14 15:25:48;;;;;;;5.13;1.95;;;16.40;99.90;;;;;;10350263;28;20093;-81
2021/05/14 15:31:09;;;;;;;3.70;1.77;;;16.10;99.90;;;;;;10334352;28;20083;-81
2021/05/14 15:36:30;;;;;;;5.68;2.92;;;16.20;99.90;;;;;;10332994;28;20046;-81
2021/05/14 15:41:51;;;;;;;5.18;2.47;;;16.10;99.90;;;;;;10355339;28;20177;-81
2021/05/14 15:47:12;;;;;;;5.32;1.92;;;16.20;99.90;;;;;;10316853;28;20038;-81
2021/05/14 15:52:33;;;;;;;10.10;3.50;;;15.80;99.90;;;;;;10327458;28;20092;-81
2021/05/14 15:57:55;;;;;;;6.60;2.47;;;15.50;99.90;;;;;;10324946;28;20049;-82
2021/05/14 16:03:16;;;;;;;7.63;2.88;;;15.40;99.90;;;;;;10305383;28;20039;-81
2021/05/14 16:08:39;;;;;;;6.30;2.70;;;15.30;99.90;;;;;;10311777;28;20048;-81
2021/05/14 16:14:01;;;;;;;7.38;2.22;;;15.30;99.90;;;;;;10328459;28;20061;-82
2021/05/14 16:19:25;;;;;;;7.80;2.58;;;15.20;99.90;;;;;;10301968;28;20136;-81
2021/05/14 16:24:45;;;;;;;5.57;2.50;;;15.20;99.90;;;;;;10314804;28;20045;-82
2021/05/14 16:30:07;;;;;;;9.23;2.72;;;15.30;99.90;;;;;;10301635;28;20049;-82
2021/05/14 16:35:29;;;;;;;6.93;2.55;;;15.20;99.90;;;;;;10317853;28;20050;-82
2021/05/14 16:40:49;;;;;;;5.72;2.47;;;15.00;99.90;;;;;;10317593;28;20052;-83
2021/05/14 16:46:10;;;;;;;5.88;2.92;;;14.90;99.90;;;;;;10316096;28;20045;-84
2021/05/14 16:51:31;;;;;;;8.70;3.40;;;15.00;99.90;;;;;;10317562;28;20786;-82
2021/05/14 16:56:52;;;;;;;9.68;2.78;;;14.80;99.90;;;;;;10322707;28;20448;-82
2021/05/14 17:02:13;;;;;;;9.32;3.30;;;14.60;99.90;;;;;;10333024;28;20058;-83
2021/05/14 17:07:35;;;;;;;4.55;1.95;;;14.40;99.90;;;;;;10315657;28;20478;-83
2021/05/14 17:12:56;;;;;;;11.98;3.58;;;14.50;99.90;;;;;;10328118;28;20117;-82
2021/05/14 17:18:17;;;;;;;5.10;1.88;;;14.50;99.90;;;;;;10325368;28;20092;-82
2021/05/14 17:23:39;;;;;;;6.10;1.85;;;14.40;99.90;;;;;;10325293;28;20068;-83
2021/05/14 17:29:00;;;;;;;5.10;2.53;;;14.50;99.90;;;;;;10318519;28;20037;-82
2021/05/14 17:34:21;;;;;;;8.43;2.20;;;14.60;99.90;;;;;;10325115;28;20034;-82
2021/05/14 17:39:42;;;;;;;6.03;2.45;;;14.80;99.90;;;;;;10316565;28;20414;-80
2021/05/14 17:45:04;;;;;;;4.70;2.30;;;14.80;99.90;;;;;;10327394;28;20041;-82
2021/05/14 17:50:25;;;;;;;8.73;2.50;;;14.70;99.90;;;;;;10324588;28;20128;-81
2021/05/14 17:55:48;;;;;;;4.97;2.25;;;14.50;99.90;;;;;;10314440;28;20042;-81
2021/05/14 18:01:09;;;;;;;4.53;1.55;;;14.40;99.90;;;;;;10334813;28;20109;-82
2021/05/14 18:06:30;;;;;;;10.77;1.88;;;14.40;99.90;;;;;;10324869;28;20410;-81
2021/05/14 18:11:51;;;;;;;5.47;2.30;;;14.30;99.90;;;;;;10312012;28;20129;-82
2021/05/14 18:17:12;;;;;;;4.38;1.70;;;14.30;99.90;;;;;;10311007;28;20584;-83
2021/05/14 18:22:33;;;;;;;5.28;2.40;;;14.20;99.90;;;;;;10309813;28;20049;-82
2021/05/14 18:27:54;;;;;;;4.20;2.17;;;14.30;99.90;;;;;;10308068;28;20070;-83
2021/05/14 18:33:15;;;;;;;4.57;2.00;;;14.30;99.90;;;;;;10307353;28;20054;-83
2021/05/14 18:38:36;;;;;;;6.80;2.38;;;14.30;99.90;;;;;;10307685;28;20038;-82
2021/05/14 18:43:58;;;;;;;4.65;1.80;;;14.20;99.90;;;;;;10322162;28;20054;-82
2021/05/14 18:49:19;;;;;;;7.63;2.30;;;14.00;99.90;;;;;;10320765;28;20049;-81
2021/05/14 18:54:40;;;;;;;5.38;1.52;;;13.90;99.90;;;;;;10319484;28;20052;-83
2021/05/14 19:00:04;;;;;;;4.97;2.03;;;13.80;99.90;;;;;;10336125;28;20176;-84
2021/05/14 19:05:27;;;;;;;8.50;2.42;;;13.60;99.90;;;;;;10330543;28;20908;-84
2021/05/14 19:10:48;;;;;;;7.15;2.53;;;13.50;99.90;;;;;;10333490;28;20042;-82
2021/05/14 19:16:09;;;;;;;4.75;2.05;;;13.40;99.90;;;;;;10320096;28;20042;-84
2021/05/14 19:21:35;;;;;;;3.70;1.92;;;13.20;99.90;;;;;;10307865;28;20052;-84
2021/05/14 19:49:30;;;;;;;4.68;1.85;;;13.10;99.90;;;;;;10332960;28;20049;-83
2021/05/14 19:54:52;;;;;;;5.15;2.20;;;13.10;99.90;;;;;;10320301;28;20046;-82
2021/05/14 20:00:14;;;;;;;4.22;2.28;;;13.20;99.90;;;;;;10321801;28;20050;-82
2021/05/14 20:05:38;;;;;;;5.25;1.75;;;13.20;99.90;;;;;;10331974;28;20042;-83
2021/05/14 20:10:59;;;;;;;4.15;2.20;;;12.90;99.90;;;;;;10317924;28;20146;-83
2021/05/14 20:16:20;;;;;;;4.88;2.35;;;12.80;99.90;;;;;;10332649;28;20052;-83
2021/05/14 20:21:41;;;;;;;4.88;1.75;;;12.70;99.90;;;;;;10316444;28;20038;-83
2021/05/14 20:27:02;;;;;;;5.32;2.10;;;12.60;99.90;;;;;;10331783;28;20042;-83
2021/05/14 20:32:26;;;;;;;7.45;2.67;;;12.50;99.90;;;;;;10329889;28;20104;-85
2021/05/14 20:37:48;;;;;;;6.05;1.60;;;12.40;99.90;;;;;;10319105;28;20510;-85
2021/05/14 20:43:09;;;;;;;4.30;2.28;;;12.30;99.90;;;;;;10323204;28;20046;-85
2021/05/14 20:48:31;;;;;;;3.72;1.92;;;12.40;99.90;;;;;;10316262;28;20034;-84
2021/05/14 20:53:52;;;;;;;4.45;1.67;;;12.20;99.90;;;;;;10333191;28;20048;-85
2021/05/14 20:59:13;;;;;;;8.07;2.28;;;12.10;99.90;;;;;;10332137;28;20061;-82
2021/05/14 21:04:34;;;;;;;5.05;2.17;;;11.90;99.90;;;;;;10347738;28;20045;-82
2021/05/14 21:09:55;;;;;;;5.10;2.10;;;11.90;99.90;;;;;;10322547;28;20073;-83
2021/05/14 21:15:18;;;;;;;5.57;2.58;;;11.80;99.90;;;;;;10336900;28;20052;-83
2021/05/14 21:20:39;;;;;;;5.00;2.50;;;11.60;99.90;;;;;;10357449;28;20050;-82
2021/05/14 21:26:00;;;;;;;8.93;2.83;;;11.80;99.90;;;;;;10348108;28;20041;-82
2021/05/14 21:31:21;;;;;;;6.68;2.22;;;11.90;99.90;;;;;;10347559;28;20466;-82
2021/05/14 21:36:44;;;;;;;4.32;1.98;;;11.80;99.90;;;;;;10356753;28;20030;-82
2021/05/14 21:42:06;;;;;;;5.50;2.53;;;11.90;99.90;;;;;;10347136;28;20141;-82
2021/05/14 21:47:27;;;;;;;6.60;2.00;;;11.90;99.90;;;;;;10357135;28;20073;-83
2021/05/14 21:52:48;;;;;;;6.50;2.35;;;11.80;99.90;;;;;;10337779;28;20041;-82
2021/05/14 21:58:09;;;;;;;12.70;3.42;;;11.70;99.90;;;;;;10324529;28;20532;-82
2021/05/14 22:03:30;;;;;;;3.95;2.00;;;11.70;99.90;;;;;;10302756;28;20045;-81
2021/05/14 22:08:51;;;;;;;5.97;2.15;;;11.60;99.90;;;;;;10324697;28;20524;-81
2021/05/14 22:14:12;;;;;;;4.68;1.48;;;11.70;99.90;;;;;;10324069;28;20972;-81
2021/05/14 22:19:34;;;;;;;6.07;2.53;;;11.60;99.90;;;;;;10335589;28;20042;-82
2021/05/14 22:24:55;;;;;;;13.60;2.53;;;11.50;99.90;;;;;;10323756;28;20588;-82
2021/05/14 22:30:17;;;;;;;6.22;2.67;;;11.40;99.90;;;;;;10338904;28;20033;-82
2021/05/14 22:35:38;;;;;;;5.68;2.47;;;11.40;99.90;;;;;;10348245;28;20042;-82
2021/05/14 22:40:59;;;;;;;6.75;2.00;;;11.20;99.90;;;;;;10326921;28;20073;-83
2021/05/14 22:46:20;;;;;;;7.13;2.30;;;11.20;99.90;;;;;;10309255;28;20112;-82
2021/05/14 22:51:41;;;;;;;6.50;2.50;;;11.10;99.90;;;;;;10312713;28;20520;-82
2021/05/14 22:57:05;;;;;;;6.00;2.78;;;11.10;99.90;;;;;;10324976;28;20049;-82
2021/05/14 23:02:26;;;;;;;5.35;1.88;;;11.00;99.90;;;;;;10321993;28;20116;-80
2021/05/14 23:07:47;;;;;;;6.07;2.30;;;11.00;99.90;;;;;;10322021;28;20104;-82
2021/05/14 23:13:08;;;;;;;6.55;1.95;;;11.00;99.90;;;;;;10324141;28;20100;-81
2021/05/14 23:18:29;;;;;;;6.60;2.65;;;10.90;99.90;;;;;;10323989;28;20367;-81
2021/05/14 23:23:50;;;;;;;4.63;2.22;;;10.80;99.90;;;;;;10308266;28;20695;-81
2021/05/14 23:29:11;;;;;;;8.48;2.85;;;10.80;99.90;;;;;;10307022;28;20045;-82
2021/05/14 23:34:32;;;;;;;7.15;2.00;;;10.70;99.90;;;;;;10322709;28;20038;-82
2021/05/14 23:39:53;;;;;;;7.78;2.83;;;10.70;99.90;;;;;;10310778;28;20061;-83
2021/05/14 23:45:15;;;;;;;6.53;3.17;;;10.70;99.90;;;;;;10325983;28;20324;-82
2021/05/14 23:50:36;;;;;;;6.05;1.65;;;10.70;99.90;;;;;;10346610;28;20061;-82
2021/05/14 23:55:57;;;;;;;5.32;2.10;;;10.50;99.90;;;;;;10308055;28;20038;-82
